sensor_id;sensor_type;location;lat;lon;timestamp;P1;durP1;ratioP1;P2;durP2;ratioP2
3971;SDS011;2000;47.572;14.202;2022-09-09T00:04:00;5.43;;;1.37;;
3971;SDS011;2000;47.572;14.202;2022-09-09T00:06:29;4.43;;;1.17;;
3971;SDS011;2000;47.572;14.202;2022-09-09T00:11:36;8.13;;;1.20;;
3971;SDS011;2000;47.572;14.202;2022-09-09T00:14:22;5.60;;;0.87;;
3971;SDS011;2000;47.572;14.202;2022-09-09T00:16:53;1.80;;;1.33;;
3971;SDS011;2000;47.572;14.202;2022-09-09T00:19:23;4.50;;;1.20;;
3971;SDS011;2000;47.572;14.202;2022-09-09T00:22:01;2.63;;;1.00;;
3971;SDS011;2000;47.572;14.202;2022-09-09T00:24:38;1.80;;;1.07;;
3971;SDS011;2000;47.572;14.202;2022-09-09T00:27:16;3.47;;;1.53;;
3971;SDS011;2000;47.572;14.202;2022-09-09T00:30:00;3.43;;;1.50;;
3971;SDS011;2000;47.572;14.202;2022-09-09T00:32:40;3.43;;;1.37;;
3971;SDS011;2000;47.572;14.202;2022-09-09T00:35:17;22.57;;;1.87;;
3971;SDS011;2000;47.572;14.202;2022-09-09T00:37:53;3.03;;;1.13;;
3971;SDS011;2000;47.572;14.202;2022-09-09T00:43:12;1.67;;;0.60;;
3971;SDS011;2000;47.572;14.202;2022-09-09T00:57:35;2.23;;;1.57;;
3971;SDS011;2000;47.572;14.202;2022-09-09T01:08:03;3.03;;;1.10;;
3971;SDS011;2000;47.572;14.202;2022-09-09T01:10:39;10.40;;;1.97;;
3971;SDS011;2000;47.572;14.202;2022-09-09T01:13:25;5.57;;;0.93;;
3971;SDS011;2000;47.572;14.202;2022-09-09T01:15:57;3.30;;;1.00;;
3971;SDS011;2000;47.572;14.202;2022-09-09T01:18:28;3.23;;;1.00;;
3971;SDS011;2000;47.572;14.202;2022-09-09T01:26:35;2.67;;;1.20;;
3971;SDS011;2000;47.572;14.202;2022-09-09T01:29:07;10.80;;;1.40;;
3971;SDS011;2000;47.572;14.202;2022-09-09T01:31:42;2.67;;;1.17;;
3971;SDS011;2000;47.572;14.202;2022-09-09T01:34:18;4.37;;;1.67;;
3971;SDS011;2000;47.572;14.202;2022-09-09T01:39:36;1.83;;;1.57;;
3971;SDS011;2000;47.572;14.202;2022-09-09T01:42:06;5.83;;;1.03;;
3971;SDS011;2000;47.572;14.202;2022-09-09T01:44:34;1.90;;;1.17;;
3971;SDS011;2000;47.572;14.202;2022-09-09T01:47:02;6.20;;;1.47;;
3971;SDS011;2000;47.572;14.202;2022-09-09T01:49:29;1.67;;;1.30;;
3971;SDS011;2000;47.572;14.202;2022-09-09T01:51:56;4.67;;;1.27;;
3971;SDS011;2000;47.572;14.202;2022-09-09T01:54:24;3.40;;;1.60;;
3971;SDS011;2000;47.572;14.202;2022-09-09T01:57:03;1.73;;;1.47;;
3971;SDS011;2000;47.572;14.202;2022-09-09T02:04:55;6.60;;;1.23;;
3971;SDS011;2000;47.572;14.202;2022-09-09T02:07:43;3.57;;;1.50;;
3971;SDS011;2000;47.572;14.202;2022-09-09T02:10:19;12.10;;;2.00;;
3971;SDS011;2000;47.572;14.202;2022-09-09T02:13:03;4.27;;;1.77;;
3971;SDS011;2000;47.572;14.202;2022-09-09T02:18:28;5.20;;;1.67;;
3971;SDS011;2000;47.572;14.202;2022-09-09T02:20:59;5.20;;;1.80;;
3971;SDS011;2000;47.572;14.202;2022-09-09T02:23:26;3.40;;;1.83;;
3971;SDS011;2000;47.572;14.202;2022-09-09T02:25:53;2.07;;;1.77;;
3971;SDS011;2000;47.572;14.202;2022-09-09T02:28:20;4.33;;;1.30;;
3971;SDS011;2000;47.572;14.202;2022-09-09T02:30:48;1.67;;;1.57;;
3971;SDS011;2000;47.572;14.202;2022-09-09T02:33:22;9.03;;;2.23;;
3971;SDS011;2000;47.572;14.202;2022-09-09T02:35:51;12.37;;;2.17;;
3971;SDS011;2000;47.572;14.202;2022-09-09T02:38:19;13.03;;;1.97;;
3971;SDS011;2000;47.572;14.202;2022-09-09T02:40:48;8.43;;;2.07;;
3971;SDS011;2000;47.572;14.202;2022-09-09T02:43:15;6.30;;;1.77;;
3971;SDS011;2000;47.572;14.202;2022-09-09T02:45:50;5.20;;;2.67;;
3971;SDS011;2000;47.572;14.202;2022-09-09T02:48:57;6.47;;;2.00;;
3971;SDS011;2000;47.572;14.202;2022-09-09T02:51:19;5.13;;;2.20;;
3971;SDS011;2000;47.572;14.202;2022-09-09T02:56:49;2.57;;;2.20;;
3971;SDS011;2000;47.572;14.202;2022-09-09T02:59:21;11.10;;;2.03;;
3971;SDS011;2000;47.572;14.202;2022-09-09T03:01:47;9.23;;;2.50;;
3971;SDS011;2000;47.572;14.202;2022-09-09T03:04:14;5.33;;;2.03;;
3971;SDS011;2000;47.572;14.202;2022-09-09T03:06:41;1.70;;;1.60;;
3971;SDS011;2000;47.572;14.202;2022-09-09T03:09:08;9.40;;;2.40;;
3971;SDS011;2000;47.572;14.202;2022-09-09T03:11:36;10.80;;;2.20;;
3971;SDS011;2000;47.572;14.202;2022-09-09T03:14:04;6.80;;;1.70;;
3971;SDS011;2000;47.572;14.202;2022-09-09T03:16:31;6.43;;;2.00;;
3971;SDS011;2000;47.572;14.202;2022-09-09T03:19:00;2.37;;;2.27;;
3971;SDS011;2000;47.572;14.202;2022-09-09T03:21:27;3.30;;;1.80;;
3971;SDS011;2000;47.572;14.202;2022-09-09T03:23:54;8.00;;;2.00;;
3971;SDS011;2000;47.572;14.202;2022-09-09T03:26:21;3.03;;;1.57;;
3971;SDS011;2000;47.572;14.202;2022-09-09T03:28:49;2.10;;;1.40;;
3971;SDS011;2000;47.572;14.202;2022-09-09T03:31:17;1.27;;;1.07;;
3971;SDS011;2000;47.572;14.202;2022-09-09T03:33:45;5.20;;;1.60;;
3971;SDS011;2000;47.572;14.202;2022-09-09T03:36:12;7.90;;;1.50;;
3971;SDS011;2000;47.572;14.202;2022-09-09T03:38:40;1.73;;;0.90;;
3971;SDS011;2000;47.572;14.202;2022-09-09T03:41:07;13.03;;;1.57;;
3971;SDS011;2000;47.572;14.202;2022-09-09T03:43:35;4.23;;;1.97;;
3971;SDS011;2000;47.572;14.202;2022-09-09T03:46:01;1.90;;;1.33;;
3971;SDS011;2000;47.572;14.202;2022-09-09T03:48:28;7.67;;;0.93;;
3971;SDS011;2000;47.572;14.202;2022-09-09T03:50:55;1.87;;;1.33;;
3971;SDS011;2000;47.572;14.202;2022-09-09T03:53:24;4.87;;;1.40;;
3971;SDS011;2000;47.572;14.202;2022-09-09T03:55:51;1.53;;;1.20;;
3971;SDS011;2000;47.572;14.202;2022-09-09T03:58:21;3.70;;;1.30;;
3971;SDS011;2000;47.572;14.202;2022-09-09T04:00:56;7.67;;;1.20;;
3971;SDS011;2000;47.572;14.202;2022-09-09T04:03:25;4.23;;;1.33;;
3971;SDS011;2000;47.572;14.202;2022-09-09T04:05:54;2.17;;;1.60;;
3971;SDS011;2000;47.572;14.202;2022-09-09T04:08:22;20.10;;;2.20;;
3971;SDS011;2000;47.572;14.202;2022-09-09T04:10:51;4.60;;;1.37;;
3971;SDS011;2000;47.572;14.202;2022-09-09T04:13:19;6.17;;;1.57;;
3971;SDS011;2000;47.572;14.202;2022-09-09T04:15:52;7.73;;;1.27;;
3971;SDS011;2000;47.572;14.202;2022-09-09T04:18:23;4.60;;;1.47;;
3971;SDS011;2000;47.572;14.202;2022-09-09T04:20:51;4.37;;;1.60;;
3971;SDS011;2000;47.572;14.202;2022-09-09T04:23:18;4.13;;;1.60;;
3971;SDS011;2000;47.572;14.202;2022-09-09T04:25:47;2.50;;;1.40;;
3971;SDS011;2000;47.572;14.202;2022-09-09T04:28:15;2.63;;;1.30;;
3971;SDS011;2000;47.572;14.202;2022-09-09T04:30:43;15.57;;;2.13;;
3971;SDS011;2000;47.572;14.202;2022-09-09T04:33:10;8.03;;;1.40;;
3971;SDS011;2000;47.572;14.202;2022-09-09T04:35:37;5.33;;;1.70;;
3971;SDS011;2000;47.572;14.202;2022-09-09T04:38:05;1.97;;;1.47;;
3971;SDS011;2000;47.572;14.202;2022-09-09T04:40:34;3.97;;;1.70;;
3971;SDS011;2000;47.572;14.202;2022-09-09T04:43:01;9.50;;;1.80;;
3971;SDS011;2000;47.572;14.202;2022-09-09T04:45:30;4.60;;;1.67;;
3971;SDS011;2000;47.572;14.202;2022-09-09T04:47:57;6.13;;;2.00;;
3971;SDS011;2000;47.572;14.202;2022-09-09T04:50:24;2.37;;;1.67;;
3971;SDS011;2000;47.572;14.202;2022-09-09T04:52:51;4.53;;;1.43;;
3971;SDS011;2000;47.572;14.202;2022-09-09T04:55:18;2.83;;;1.90;;
3971;SDS011;2000;47.572;14.202;2022-09-09T04:57:45;7.60;;;1.13;;
3971;SDS011;2000;47.572;14.202;2022-09-09T05:00:12;2.53;;;1.63;;
3971;SDS011;2000;47.572;14.202;2022-09-09T05:02:39;3.50;;;1.70;;
3971;SDS011;2000;47.572;14.202;2022-09-09T05:05:07;4.10;;;1.60;;
3971;SDS011;2000;47.572;14.202;2022-09-09T05:07:34;2.77;;;1.70;;
3971;SDS011;2000;47.572;14.202;2022-09-09T05:10:02;7.10;;;2.47;;
3971;SDS011;2000;47.572;14.202;2022-09-09T05:12:31;4.23;;;1.67;;
3971;SDS011;2000;47.572;14.202;2022-09-09T05:14:58;14.53;;;1.70;;
3971;SDS011;2000;47.572;14.202;2022-09-09T05:17:24;3.63;;;2.03;;
3971;SDS011;2000;47.572;14.202;2022-09-09T05:19:51;2.50;;;1.67;;
3971;SDS011;2000;47.572;14.202;2022-09-09T05:22:19;4.23;;;1.60;;
3971;SDS011;2000;47.572;14.202;2022-09-09T05:24:46;7.13;;;1.30;;
3971;SDS011;2000;47.572;14.202;2022-09-09T05:27:14;3.27;;;1.33;;
3971;SDS011;2000;47.572;14.202;2022-09-09T05:29:41;2.73;;;1.50;;
3971;SDS011;2000;47.572;14.202;2022-09-09T05:32:09;3.27;;;1.50;;
3971;SDS011;2000;47.572;14.202;2022-09-09T05:34:40;2.63;;;1.20;;
3971;SDS011;2000;47.572;14.202;2022-09-09T05:37:07;3.30;;;1.07;;
3971;SDS011;2000;47.572;14.202;2022-09-09T05:39:34;3.43;;;1.87;;
3971;SDS011;2000;47.572;14.202;2022-09-09T05:42:03;1.80;;;1.47;;
3971;SDS011;2000;47.572;14.202;2022-09-09T05:44:31;4.97;;;2.20;;
3971;SDS011;2000;47.572;14.202;2022-09-09T05:46:57;6.70;;;1.90;;
3971;SDS011;2000;47.572;14.202;2022-09-09T05:49:24;15.87;;;2.40;;
3971;SDS011;2000;47.572;14.202;2022-09-09T05:51:51;9.17;;;2.10;;
3971;SDS011;2000;47.572;14.202;2022-09-09T05:54:19;4.83;;;1.27;;
3971;SDS011;2000;47.572;14.202;2022-09-09T05:56:46;9.13;;;1.13;;
3971;SDS011;2000;47.572;14.202;2022-09-09T05:59:17;7.30;;;1.47;;
3971;SDS011;2000;47.572;14.202;2022-09-09T06:01:44;3.67;;;1.57;;
3971;SDS011;2000;47.572;14.202;2022-09-09T06:04:11;9.53;;;1.67;;
3971;SDS011;2000;47.572;14.202;2022-09-09T06:06:38;7.50;;;1.50;;
3971;SDS011;2000;47.572;14.202;2022-09-09T06:09:06;8.40;;;1.53;;
3971;SDS011;2000;47.572;14.202;2022-09-09T06:11:39;5.70;;;1.27;;
3971;SDS011;2000;47.572;14.202;2022-09-09T06:14:06;8.97;;;2.10;;
3971;SDS011;2000;47.572;14.202;2022-09-09T06:16:33;4.40;;;1.87;;
3971;SDS011;2000;47.572;14.202;2022-09-09T06:19:01;2.03;;;1.43;;
3971;SDS011;2000;47.572;14.202;2022-09-09T06:21:30;4.03;;;1.67;;
3971;SDS011;2000;47.572;14.202;2022-09-09T06:23:59;5.50;;;1.43;;
3971;SDS011;2000;47.572;14.202;2022-09-09T06:26:27;7.37;;;1.20;;
3971;SDS011;2000;47.572;14.202;2022-09-09T06:28:58;3.73;;;1.07;;
3971;SDS011;2000;47.572;14.202;2022-09-09T06:31:26;7.90;;;2.20;;
3971;SDS011;2000;47.572;14.202;2022-09-09T06:33:57;1.40;;;1.30;;
3971;SDS011;2000;47.572;14.202;2022-09-09T06:36:25;4.60;;;2.13;;
3971;SDS011;2000;47.572;14.202;2022-09-09T06:38:59;1.60;;;1.43;;
3971;SDS011;2000;47.572;14.202;2022-09-09T06:41:27;8.93;;;1.53;;
3971;SDS011;2000;47.572;14.202;2022-09-09T06:43:55;2.10;;;1.60;;
3971;SDS011;2000;47.572;14.202;2022-09-09T06:46:23;1.40;;;1.30;;
3971;SDS011;2000;47.572;14.202;2022-09-09T06:48:54;2.80;;;1.43;;
3971;SDS011;2000;47.572;14.202;2022-09-09T06:51:24;2.97;;;2.67;;
3971;SDS011;2000;47.572;14.202;2022-09-09T06:53:53;6.20;;;3.63;;
3971;SDS011;2000;47.572;14.202;2022-09-09T06:56:28;8.60;;;4.20;;
3971;SDS011;2000;47.572;14.202;2022-09-09T06:59:00;6.50;;;3.47;;
3971;SDS011;2000;47.572;14.202;2022-09-09T07:01:34;3.50;;;2.20;;
3971;SDS011;2000;47.572;14.202;2022-09-09T07:04:02;3.63;;;1.93;;
3971;SDS011;2000;47.572;14.202;2022-09-09T07:06:31;1.97;;;1.77;;
3971;SDS011;2000;47.572;14.202;2022-09-09T07:09:00;2.20;;;1.37;;
3971;SDS011;2000;47.572;14.202;2022-09-09T07:11:32;3.13;;;1.60;;
3971;SDS011;2000;47.572;14.202;2022-09-09T07:14:00;3.67;;;1.30;;
3971;SDS011;2000;47.572;14.202;2022-09-09T07:16:27;1.73;;;0.70;;
3971;SDS011;2000;47.572;14.202;2022-09-09T07:18:55;3.13;;;0.83;;
3971;SDS011;2000;47.572;14.202;2022-09-09T07:21:27;2.00;;;1.00;;
3971;SDS011;2000;47.572;14.202;2022-09-09T07:23:54;3.13;;;1.00;;
3971;SDS011;2000;47.572;14.202;2022-09-09T07:26:23;3.03;;;1.00;;
3971;SDS011;2000;47.572;14.202;2022-09-09T07:28:51;1.77;;;1.67;;
3971;SDS011;2000;47.572;14.202;2022-09-09T07:31:19;1.93;;;0.90;;
3971;SDS011;2000;47.572;14.202;2022-09-09T07:33:48;0.70;;;0.70;;
3971;SDS011;2000;47.572;14.202;2022-09-09T07:36:17;3.50;;;0.50;;
3971;SDS011;2000;47.572;14.202;2022-09-09T07:39:07;2.30;;;0.50;;
3971;SDS011;2000;47.572;14.202;2022-09-09T07:41:40;0.53;;;0.53;;
3971;SDS011;2000;47.572;14.202;2022-09-09T07:44:12;1.80;;;0.63;;
3971;SDS011;2000;47.572;14.202;2022-09-09T07:46:40;4.03;;;0.60;;
3971;SDS011;2000;47.572;14.202;2022-09-09T07:49:08;0.70;;;0.63;;
3971;SDS011;2000;47.572;14.202;2022-09-09T07:51:36;1.80;;;0.60;;
3971;SDS011;2000;47.572;14.202;2022-09-09T07:54:14;1.93;;;0.80;;
3971;SDS011;2000;47.572;14.202;2022-09-09T07:56:42;2.90;;;1.20;;
3971;SDS011;2000;47.572;14.202;2022-09-09T07:59:09;1.20;;;1.10;;
3971;SDS011;2000;47.572;14.202;2022-09-09T08:01:37;3.27;;;1.00;;
3971;SDS011;2000;47.572;14.202;2022-09-09T08:04:14;0.60;;;0.60;;
3971;SDS011;2000;47.572;14.202;2022-09-09T08:06:47;1.77;;;0.80;;
3971;SDS011;2000;47.572;14.202;2022-09-09T08:09:21;0.60;;;0.60;;
3971;SDS011;2000;47.572;14.202;2022-09-09T08:11:51;1.77;;;0.70;;
3971;SDS011;2000;47.572;14.202;2022-09-09T08:14:18;1.57;;;0.70;;
3971;SDS011;2000;47.572;14.202;2022-09-09T08:16:46;4.43;;;1.13;;
3971;SDS011;2000;47.572;14.202;2022-09-09T08:19:14;0.97;;;0.53;;
3971;SDS011;2000;47.572;14.202;2022-09-09T08:21:44;7.70;;;0.60;;
3971;SDS011;2000;47.572;14.202;2022-09-09T08:24:11;2.37;;;1.40;;
3971;SDS011;2000;47.572;14.202;2022-09-09T08:26:41;1.70;;;0.77;;
3971;SDS011;2000;47.572;14.202;2022-09-09T08:29:12;1.17;;;0.80;;
3971;SDS011;2000;47.572;14.202;2022-09-09T08:31:41;0.97;;;0.90;;
3971;SDS011;2000;47.572;14.202;2022-09-09T08:34:09;13.27;;;1.07;;
3971;SDS011;2000;47.572;14.202;2022-09-09T08:36:40;5.23;;;1.10;;
3971;SDS011;2000;47.572;14.202;2022-09-09T08:39:09;1.90;;;0.60;;
3971;SDS011;2000;47.572;14.202;2022-09-09T08:42:20;2.67;;;1.03;;
3971;SDS011;2000;47.572;14.202;2022-09-09T08:50:19;0.70;;;0.70;;
3971;SDS011;2000;47.572;14.202;2022-09-09T08:53:02;1.00;;;0.83;;
3971;SDS011;2000;47.572;14.202;2022-09-09T08:58:16;1.43;;;1.00;;
3971;SDS011;2000;47.572;14.202;2022-09-09T09:00:48;2.60;;;0.90;;
3971;SDS011;2000;47.572;14.202;2022-09-09T09:03:25;0.53;;;0.53;;
3971;SDS011;2000;47.572;14.202;2022-09-09T09:06:04;0.83;;;0.67;;
3971;SDS011;2000;47.572;14.202;2022-09-09T09:08:37;1.93;;;1.20;;
3971;SDS011;2000;47.572;14.202;2022-09-09T09:11:05;0.80;;;0.80;;
3971;SDS011;2000;47.572;14.202;2022-09-09T09:13:40;1.47;;;0.90;;
3971;SDS011;2000;47.572;14.202;2022-09-09T09:19:13;4.63;;;1.07;;
3971;SDS011;2000;47.572;14.202;2022-09-09T09:24:16;1.70;;;1.00;;
3971;SDS011;2000;47.572;14.202;2022-09-09T09:26:47;1.60;;;0.97;;
3971;SDS011;2000;47.572;14.202;2022-09-09T09:29:15;0.40;;;0.40;;
3971;SDS011;2000;47.572;14.202;2022-09-09T09:31:53;0.53;;;0.53;;
3971;SDS011;2000;47.572;14.202;2022-09-09T09:34:22;3.33;;;1.40;;
3971;SDS011;2000;47.572;14.202;2022-09-09T09:36:54;1.43;;;0.90;;
3971;SDS011;2000;47.572;14.202;2022-09-09T09:42:16;3.97;;;1.17;;
3971;SDS011;2000;47.572;14.202;2022-09-09T09:44:48;4.87;;;1.13;;
3971;SDS011;2000;47.572;14.202;2022-09-09T09:47:16;1.07;;;1.07;;
3971;SDS011;2000;47.572;14.202;2022-09-09T09:49:51;3.50;;;0.97;;
3971;SDS011;2000;47.572;14.202;2022-09-09T09:52:21;2.20;;;1.47;;
3971;SDS011;2000;47.572;14.202;2022-09-09T09:54:50;1.20;;;1.10;;
3971;SDS011;2000;47.572;14.202;2022-09-09T09:57:18;2.80;;;1.20;;
3971;SDS011;2000;47.572;14.202;2022-09-09T10:00:00;1.30;;;1.20;;
3971;SDS011;2000;47.572;14.202;2022-09-09T10:02:37;2.23;;;1.00;;
3971;SDS011;2000;47.572;14.202;2022-09-09T10:07:42;0.93;;;0.80;;
3971;SDS011;2000;47.572;14.202;2022-09-09T10:10:18;1.73;;;1.20;;
3971;SDS011;2000;47.572;14.202;2022-09-09T10:15:43;1.37;;;1.03;;
3971;SDS011;2000;47.572;14.202;2022-09-09T10:32:04;0.30;;;0.30;;
3971;SDS011;2000;47.572;14.202;2022-09-09T10:40:02;0.67;;;0.60;;
3971;SDS011;2000;47.572;14.202;2022-09-09T10:42:39;0.50;;;0.50;;
3971;SDS011;2000;47.572;14.202;2022-09-09T10:53:33;0.93;;;0.30;;
3971;SDS011;2000;47.572;14.202;2022-09-09T10:56:12;0.80;;;0.60;;
3971;SDS011;2000;47.572;14.202;2022-09-09T10:58:43;0.60;;;0.60;;
3971;SDS011;2000;47.572;14.202;2022-09-09T11:01:22;5.20;;;1.67;;
3971;SDS011;2000;47.572;14.202;2022-09-09T11:03:53;4.10;;;1.37;;
3971;SDS011;2000;47.572;14.202;2022-09-09T11:06:24;1.73;;;1.10;;
3971;SDS011;2000;47.572;14.202;2022-09-09T11:08:55;2.50;;;1.30;;
3971;SDS011;2000;47.572;14.202;2022-09-09T11:11:32;0.87;;;0.87;;
3971;SDS011;2000;47.572;14.202;2022-09-09T11:14:07;0.93;;;0.93;;
3971;SDS011;2000;47.572;14.202;2022-09-09T11:16:50;1.30;;;1.10;;
3971;SDS011;2000;47.572;14.202;2022-09-09T11:24:52;1.60;;;0.90;;
3971;SDS011;2000;47.572;14.202;2022-09-09T11:30:20;3.00;;;1.03;;
3971;SDS011;2000;47.572;14.202;2022-09-09T11:38:44;2.00;;;0.73;;
3971;SDS011;2000;47.572;14.202;2022-09-09T11:41:17;0.60;;;0.60;;
3971;SDS011;2000;47.572;14.202;2022-09-09T11:43:50;1.77;;;1.10;;
3971;SDS011;2000;47.572;14.202;2022-09-09T11:46:31;0.90;;;0.90;;
3971;SDS011;2000;47.572;14.202;2022-09-09T11:49:04;1.20;;;1.10;;
3971;SDS011;2000;47.572;14.202;2022-09-09T11:51:32;1.30;;;1.10;;
3971;SDS011;2000;47.572;14.202;2022-09-09T11:54:01;1.10;;;0.80;;
3971;SDS011;2000;47.572;14.202;2022-09-09T11:56:32;2.80;;;1.70;;
3971;SDS011;2000;47.572;14.202;2022-09-09T11:59:23;4.83;;;1.07;;
3971;SDS011;2000;47.572;14.202;2022-09-09T12:07:21;2.50;;;1.20;;
3971;SDS011;2000;47.572;14.202;2022-09-09T12:09:43;1.87;;;1.27;;
3971;SDS011;2000;47.572;14.202;2022-09-09T12:19:47;1.77;;;1.17;;
3971;SDS011;2000;47.572;14.202;2022-09-09T12:22:35;1.53;;;1.03;;
3971;SDS011;2000;47.572;14.202;2022-09-09T12:25:18;3.77;;;0.90;;
3971;SDS011;2000;47.572;14.202;2022-09-09T12:33:34;5.30;;;2.10;;
3971;SDS011;2000;47.572;14.202;2022-09-09T12:36:03;2.50;;;1.40;;
3971;SDS011;2000;47.572;14.202;2022-09-09T12:38:34;2.60;;;1.00;;
3971;SDS011;2000;47.572;14.202;2022-09-09T12:41:03;1.57;;;1.47;;
3971;SDS011;2000;47.572;14.202;2022-09-09T12:43:30;3.07;;;0.80;;
3971;SDS011;2000;47.572;14.202;2022-09-09T12:46:06;5.20;;;0.80;;
3971;SDS011;2000;47.572;14.202;2022-09-09T12:48:39;1.23;;;1.07;;
3971;SDS011;2000;47.572;14.202;2022-09-09T12:51:27;4.63;;;0.90;;
3971;SDS011;2000;47.572;14.202;2022-09-09T12:53:55;2.33;;;0.93;;
3971;SDS011;2000;47.572;14.202;2022-09-09T12:56:27;2.37;;;1.47;;
3971;SDS011;2000;47.572;14.202;2022-09-09T12:58:56;1.60;;;0.83;;
3971;SDS011;2000;47.572;14.202;2022-09-09T13:01:28;1.10;;;0.80;;
3971;SDS011;2000;47.572;14.202;2022-09-09T13:03:57;2.93;;;0.63;;
3971;SDS011;2000;47.572;14.202;2022-09-09T13:06:28;1.10;;;1.00;;
3971;SDS011;2000;47.572;14.202;2022-09-09T13:08:57;1.10;;;1.10;;
3971;SDS011;2000;47.572;14.202;2022-09-09T13:11:36;4.43;;;0.90;;
3971;SDS011;2000;47.572;14.202;2022-09-09T13:14:05;3.60;;;0.90;;
3971;SDS011;2000;47.572;14.202;2022-09-09T13:16:33;3.03;;;0.97;;
3971;SDS011;2000;47.572;14.202;2022-09-09T13:19:08;0.80;;;0.80;;
3971;SDS011;2000;47.572;14.202;2022-09-09T13:21:37;1.30;;;0.90;;
3971;SDS011;2000;47.572;14.202;2022-09-09T13:24:05;1.83;;;1.00;;
3971;SDS011;2000;47.572;14.202;2022-09-09T13:26:34;9.93;;;0.80;;
3971;SDS011;2000;47.572;14.202;2022-09-09T13:29:08;2.00;;;0.70;;
3971;SDS011;2000;47.572;14.202;2022-09-09T13:31:44;1.77;;;0.87;;
3971;SDS011;2000;47.572;14.202;2022-09-09T13:34:28;5.23;;;1.13;;
3971;SDS011;2000;47.572;14.202;2022-09-09T13:37:00;1.43;;;0.67;;
3971;SDS011;2000;47.572;14.202;2022-09-09T13:39:34;0.83;;;0.77;;
3971;SDS011;2000;47.572;14.202;2022-09-09T13:42:03;1.93;;;1.23;;
3971;SDS011;2000;47.572;14.202;2022-09-09T13:44:31;2.47;;;1.60;;
3971;SDS011;2000;47.572;14.202;2022-09-09T13:47:06;1.17;;;1.07;;
3971;SDS011;2000;47.572;14.202;2022-09-09T13:49:42;4.03;;;1.40;;
3971;SDS011;2000;47.572;14.202;2022-09-09T13:52:10;4.87;;;1.07;;
3971;SDS011;2000;47.572;14.202;2022-09-09T13:54:42;1.53;;;1.00;;
3971;SDS011;2000;47.572;14.202;2022-09-09T13:57:16;1.90;;;0.80;;
3971;SDS011;2000;47.572;14.202;2022-09-09T13:59:47;7.87;;;1.50;;
3971;SDS011;2000;47.572;14.202;2022-09-09T14:02:31;2.20;;;0.93;;
3971;SDS011;2000;47.572;14.202;2022-09-09T14:04:59;1.83;;;1.20;;
3971;SDS011;2000;47.572;14.202;2022-09-09T14:07:26;1.90;;;1.10;;
3971;SDS011;2000;47.572;14.202;2022-09-09T14:09:53;21.10;;;14.20;;
3971;SDS011;2000;47.572;14.202;2022-09-09T14:12:20;20.87;;;16.30;;
3971;SDS011;2000;47.572;14.202;2022-09-09T14:14:47;5.93;;;5.30;;
3971;SDS011;2000;47.572;14.202;2022-09-09T14:17:14;6.40;;;5.70;;
3971;SDS011;2000;47.572;14.202;2022-09-09T14:19:41;3.60;;;1.67;;
3971;SDS011;2000;47.572;14.202;2022-09-09T14:22:08;1.67;;;1.20;;
3971;SDS011;2000;47.572;14.202;2022-09-09T14:24:35;1.80;;;1.00;;
3971;SDS011;2000;47.572;14.202;2022-09-09T14:27:02;1.50;;;1.03;;
3971;SDS011;2000;47.572;14.202;2022-09-09T14:29:29;1.80;;;1.00;;
3971;SDS011;2000;47.572;14.202;2022-09-09T14:31:56;2.47;;;1.40;;
3971;SDS011;2000;47.572;14.202;2022-09-09T14:34:22;2.43;;;1.60;;
3971;SDS011;2000;47.572;14.202;2022-09-09T14:36:49;2.87;;;2.57;;
3971;SDS011;2000;47.572;14.202;2022-09-09T14:39:16;8.27;;;3.37;;
3971;SDS011;2000;47.572;14.202;2022-09-09T14:41:43;7.93;;;4.40;;
3971;SDS011;2000;47.572;14.202;2022-09-09T14:44:10;3.33;;;3.13;;
3971;SDS011;2000;47.572;14.202;2022-09-09T14:46:37;7.97;;;3.50;;
3971;SDS011;2000;47.572;14.202;2022-09-09T14:49:03;1.93;;;1.83;;
3971;SDS011;2000;47.572;14.202;2022-09-09T14:51:31;4.90;;;1.47;;
3971;SDS011;2000;47.572;14.202;2022-09-09T14:53:58;2.27;;;2.17;;
3971;SDS011;2000;47.572;14.202;2022-09-09T14:56:28;3.00;;;1.60;;
3971;SDS011;2000;47.572;14.202;2022-09-09T14:58:56;6.23;;;1.63;;
3971;SDS011;2000;47.572;14.202;2022-09-09T15:01:25;1.83;;;1.00;;
3971;SDS011;2000;47.572;14.202;2022-09-09T15:03:56;16.70;;;1.37;;
3971;SDS011;2000;47.572;14.202;2022-09-09T15:06:25;3.33;;;1.47;;
3971;SDS011;2000;47.572;14.202;2022-09-09T15:08:53;11.47;;;3.90;;
3971;SDS011;2000;47.572;14.202;2022-09-09T15:11:20;5.10;;;1.57;;
3971;SDS011;2000;47.572;14.202;2022-09-09T15:13:51;2.20;;;1.40;;
3971;SDS011;2000;47.572;14.202;2022-09-09T15:16:21;3.70;;;2.67;;
3971;SDS011;2000;47.572;14.202;2022-09-09T15:18:51;5.30;;;0.80;;
3971;SDS011;2000;47.572;14.202;2022-09-09T15:21:21;1.40;;;0.60;;
3971;SDS011;2000;47.572;14.202;2022-09-09T15:23:49;4.50;;;0.63;;
3971;SDS011;2000;47.572;14.202;2022-09-09T15:26:17;0.70;;;0.70;;
3971;SDS011;2000;47.572;14.202;2022-09-09T15:28:45;4.10;;;1.53;;
3971;SDS011;2000;47.572;14.202;2022-09-09T15:31:14;3.10;;;1.60;;
3971;SDS011;2000;47.572;14.202;2022-09-09T15:36:34;5.50;;;2.20;;
3971;SDS011;2000;47.572;14.202;2022-09-09T15:39:02;9.40;;;2.90;;
3971;SDS011;2000;47.572;14.202;2022-09-09T15:41:30;10.93;;;3.80;;
3971;SDS011;2000;47.572;14.202;2022-09-09T15:43:58;5.33;;;3.53;;
3971;SDS011;2000;47.572;14.202;2022-09-09T15:46:30;10.03;;;4.30;;
3971;SDS011;2000;47.572;14.202;2022-09-09T15:49:03;4.10;;;3.10;;
3971;SDS011;2000;47.572;14.202;2022-09-09T15:51:31;5.73;;;2.17;;
3971;SDS011;2000;47.572;14.202;2022-09-09T15:54:15;3.53;;;2.60;;
3971;SDS011;2000;47.572;14.202;2022-09-09T15:56:47;2.90;;;2.30;;
3971;SDS011;2000;47.572;14.202;2022-09-09T15:59:17;5.97;;;1.97;;
3971;SDS011;2000;47.572;14.202;2022-09-09T16:01:44;5.50;;;1.80;;
3971;SDS011;2000;47.572;14.202;2022-09-09T16:04:11;1.73;;;1.47;;
3971;SDS011;2000;47.572;14.202;2022-09-09T16:06:38;3.07;;;1.13;;
3971;SDS011;2000;47.572;14.202;2022-09-09T16:09:06;6.50;;;1.37;;
3971;SDS011;2000;47.572;14.202;2022-09-09T16:11:35;1.77;;;1.10;;
3971;SDS011;2000;47.572;14.202;2022-09-09T16:14:03;2.00;;;1.20;;
3971;SDS011;2000;47.572;14.202;2022-09-09T16:16:31;2.57;;;1.27;;
3971;SDS011;2000;47.572;14.202;2022-09-09T16:18:59;2.20;;;1.17;;
3971;SDS011;2000;47.572;14.202;2022-09-09T16:21:30;2.30;;;0.80;;
3971;SDS011;2000;47.572;14.202;2022-09-09T16:23:59;4.73;;;0.60;;
3971;SDS011;2000;47.572;14.202;2022-09-09T16:26:27;1.33;;;0.53;;
3971;SDS011;2000;47.572;14.202;2022-09-09T16:28:55;1.00;;;1.00;;
3971;SDS011;2000;47.572;14.202;2022-09-09T16:31:22;1.63;;;0.87;;
3971;SDS011;2000;47.572;14.202;2022-09-09T16:33:50;2.93;;;0.93;;
3971;SDS011;2000;47.572;14.202;2022-09-09T16:36:23;0.90;;;0.77;;
3971;SDS011;2000;47.572;14.202;2022-09-09T16:38:52;2.70;;;0.97;;
3971;SDS011;2000;47.572;14.202;2022-09-09T16:41:21;1.90;;;1.20;;
3971;SDS011;2000;47.572;14.202;2022-09-09T16:43:52;2.27;;;2.07;;
3971;SDS011;2000;47.572;14.202;2022-09-09T16:46:22;10.20;;;2.30;;
3971;SDS011;2000;47.572;14.202;2022-09-09T16:48:51;4.30;;;2.30;;
3971;SDS011;2000;47.572;14.202;2022-09-09T16:51:19;4.40;;;2.50;;
3971;SDS011;2000;47.572;14.202;2022-09-09T16:53:50;1.30;;;1.20;;
3971;SDS011;2000;47.572;14.202;2022-09-09T16:56:19;9.53;;;2.40;;
3971;SDS011;2000;47.572;14.202;2022-09-09T16:58:51;2.73;;;1.90;;
3971;SDS011;2000;47.572;14.202;2022-09-09T17:01:22;5.50;;;3.60;;
3971;SDS011;2000;47.572;14.202;2022-09-09T17:03:56;13.30;;;9.60;;
3971;SDS011;2000;47.572;14.202;2022-09-09T17:06:27;3.90;;;3.20;;
3971;SDS011;2000;47.572;14.202;2022-09-09T17:08:58;4.03;;;2.70;;
3971;SDS011;2000;47.572;14.202;2022-09-09T17:11:27;3.33;;;2.50;;
3971;SDS011;2000;47.572;14.202;2022-09-09T17:13:55;10.30;;;3.70;;
3971;SDS011;2000;47.572;14.202;2022-09-09T17:16:27;4.33;;;2.50;;
3971;SDS011;2000;47.572;14.202;2022-09-09T17:18:56;2.93;;;2.03;;
3971;SDS011;2000;47.572;14.202;2022-09-09T17:21:25;17.57;;;2.30;;
3971;SDS011;2000;47.572;14.202;2022-09-09T17:23:53;2.90;;;1.37;;
3971;SDS011;2000;47.572;14.202;2022-09-09T17:26:21;4.90;;;3.47;;
3971;SDS011;2000;47.572;14.202;2022-09-09T17:28:49;10.73;;;3.70;;
3971;SDS011;2000;47.572;14.202;2022-09-09T17:31:17;5.70;;;2.20;;
3971;SDS011;2000;47.572;14.202;2022-09-09T17:33:46;5.80;;;2.53;;